Sanshun Maru — JD2266 — position and weather

sailwx.info

Track history (hours):
 
Tides and Currents Weather Stations Pressure Air Temp Water Temp Dewpoint Dewpoint Depression Visibility Wind Speed Wind Dir Waves Ship Positions

Sanshun Maru

Last reported at 2018-Jan-19 01:00 UTC. Time now 2018-Jan-19 01:14 UTC.
Position N 35°32' E 139°46'.

Length 64 m; draft 4.4 m.

Type: Tanker. MMSI: 431101145.

Date/timePositionNaut miles runAvg speedWind from/ knotsBaromVisibWave heightAir tempDewpointWater temp
2018-Jan-19 01:00N 35°32' E 139°46'0 0.0
2018-Jan-19 00:30N 35°32' E 139°46'0 0.0
2018-Jan-19 00:01N 35°32' E 139°46'0 0.0
2018-Jan-18 23:30N 35°32' E 139°46'0 0.0
2018-Jan-18 23:00N 35°32' E 139°46'0 0.0
2018-Jan-18 22:30N 35°32' E 139°46'2 4.8
2018-Jan-18 22:01N 35°30' E 139°48'1 2.2
2018-Jan-18 21:22N 35°30' E 139°50'0 0.0
2018-Jan-18 21:00N 35°30' E 139°50'0 0.0
2018-Jan-18 20:25N 35°30' E 139°50'0 0.0
2018-Jan-18 19:58N 35°30' E 139°50'0 0.1
2018-Jan-18 19:30N 35°30' E 139°50'0 0.0
2018-Jan-18 19:00N 35°30' E 139°50'4 7.6
2018-Jan-18 18:30N 35°27' E 139°47'612.6
2018-Jan-18 18:00N 35°21' E 139°45'612.0
2018-Jan-18 17:30N 35°15' E 139°47'612.4
2018-Jan-18 17:00N 35°09' E 139°46'611.6
2018-Jan-18 16:30N 35°04' E 139°42'612.3
2018-Jan-18 16:00N 35°00' E 139°36'813.1
2018-Jan-18 15:24N 34°56' E 139°28'913.7
2018-Jan-18 14:47N 34°50' E 139°20'513.6
2018-Jan-18 14:23N 34°47' E 139°15'813.8
2018-Jan-18 13:50N 34°42' E 139°08'413.4
2018-Jan-18 13:30N 34°40' E 139°03'813.5
2018-Jan-18 12:57N 34°35' E 138°56'1112.6
2018-Jan-18 12:06N 34°34' E 138°43'412.2
2018-Jan-18 11:46N 34°34' E 138°38'412.6
2018-Jan-18 11:27N 34°34' E 138°33'612.8
2018-Jan-18 10:58N 34°34' E 138°26'712.8
2018-Jan-18 10:25N 34°33' E 138°17'912.4
2018-Jan-18 09:43N 34°33' E 138°07'513.3
2018-Jan-18 09:22N 34°32' E 138°01'613.3
2018-Jan-18 08:57N 34°32' E 137°54'3113.2
2018-Jan-18 06:37N 34°32' E 137°17'212.8
2018-Jan-18 06:28N 34°32' E 137°15'2011.5
2018-Jan-18 04:46N 34°39' E 136°52'412.4
2018-Jan-18 04:26N 34°42' E 136°49'512.8
2018-Jan-18 04:00N 34°47' E 136°46'612.7
2018-Jan-18 03:30N 34°53' E 136°46'612.6
2018-Jan-18 03:00N 34°59' E 136°49'610.2
2018-Jan-18 02:28N 35°03' E 136°53'0 0.0
2018-Jan-18 01:58N 35°03' E 136°53'0 0.0
2018-Jan-18 01:28N 35°03' E 136°53'0 0.0
2018-Jan-18 00:58N 35°03' E 136°53'0 0.0
2018-Jan-17 23:58N 35°03' E 136°53'0 0.0
2018-Jan-17 23:52N 35°03' E 136°53'  
2018-Jan-12 06:58N 34°02' E 131°48'2 4.0
2018-Jan-12 06:27N 34°00' E 131°46'511.7
2018-Jan-12 06:00N 33°55' E 131°45'612.4
2018-Jan-12 05:30N 33°49' E 131°46'612.3
2018-Jan-12 05:00N 33°43' E 131°46'612.7
2018-Jan-12 04:30N 33°37' E 131°47'612.5
2018-Jan-12 04:00N 33°30' E 131°46'712.2
2018-Jan-12 03:24N 33°23' E 131°44'512.5
2018-Jan-12 03:00N 33°19' E 131°41'3 4.3
2018-Jan-12 02:24N 33°16' E 131°41'0 0.0
2018-Jan-12 02:00N 33°16' E 131°41'0 0.0
2018-Jan-12 01:28N 33°16' E 131°41'0 0.0
2018-Jan-12 00:56N 33°16' E 131°41'0 0.0
2018-Jan-12 00:21N 33°16' E 131°41'0 0.0
2018-Jan-11 23:48N 33°16' E 131°41'0 0.0
2018-Jan-11 23:27N 33°16' E 131°41'2 3.6
2018-Jan-11 22:59N 33°18' E 131°41'3 7.0
2018-Jan-11 22:30N 33°21' E 131°41'0 0.0
2018-Jan-11 22:00N 33°21' E 131°41'0 0.0
2018-Jan-11 21:20N 33°21' E 131°41'0 0.0
2018-Jan-11 20:53N 33°21' E 131°41'2 4.6
2018-Jan-11 20:30N 33°23' E 131°42'711.0
2018-Jan-11 19:53N 33°27' E 131°49'410.3
2018-Jan-11 19:28N 33°30' E 131°53'3510.3
2018-Jan-11 16:06N 33°48' E 132°28'110.9
2018-Jan-11 16:00N 33°48' E 132°29'711.4
2018-Jan-11 15:22N 33°53' E 132°36'411.8
2018-Jan-11 15:00N 33°56' E 132°40'611.9
2018-Jan-11 14:30N 34°00' E 132°44'5 0.2
2018-Jan-10 13:14N 34°05' E 132°42'312.2
2018-Jan-10 13:00N 34°03' E 132°39'612.0
2018-Jan-10 12:30N 33°59' E 132°35'2811.3
2018-Jan-10 10:04N 33°46' E 132°05'112.6
2018-Jan-10 09:58N 33°46' E 132°03'812.8
2018-Jan-10 09:19N 33°45' E 131°53'413.2
2018-Jan-10 09:00N 33°46' E 131°49'713.0
2018-Jan-10 08:30N 33°48' E 131°41'613.0
2018-Jan-10 08:00N 33°49' E 131°33'613.0
2018-Jan-10 07:30N 33°51' E 131°26'713.3
2018-Jan-10 07:00N 33°52' E 131°18'611.7
2018-Jan-10 06:30N 33°56' E 131°13'2 3.2
2018-Jan-10 06:00N 33°57' E 131°14'0 0.0
2018-Jan-10 05:31N 33°57' E 131°14'0 0.0
2018-Jan-10 05:00N 33°57' E 131°14'0 0.0
2018-Jan-10 04:31N 33°57' E 131°14'0 0.0
2018-Jan-10 04:00N 33°57' E 131°14'0 0.0
2018-Jan-10 03:30N 33°57' E 131°14'0 0.0
2018-Jan-10 03:00N 33°57' E 131°14'0 0.0
2018-Jan-10 02:31N 33°57' E 131°14'0 0.0
2018-Jan-10 02:00N 33°57' E 131°14'3 6.0
2018-Jan-10 01:30N 33°54' E 131°13'510.3
2018-Jan-10 01:00N 33°52' E 131°18'511.0
2018-Jan-10 00:30N 33°51' E 131°25'611.0
2018-Jan-10 00:00N 33°50' E 131°31'611.1
2018-Jan-09 23:30N 33°49' E 131°38'511.0
2018-Jan-09 23:00N 33°47' E 131°44'610.8
2018-Jan-09 22:30N 33°46' E 131°51'811.1
2018-Jan-09 21:45N 33°46' E 132°01'311.2
2018-Jan-09 21:30N 33°46' E 132°04'611.9
2018-Jan-09 21:00N 33°49' E 132°10'911.5
2018-Jan-09 20:13N 33°50' E 132°21'611.1
2018-Jan-09 19:41N 33°54' E 132°27'211.2
2018-Jan-09 19:30N 33°55' E 132°29'710.2
2018-Jan-09 18:51N 33°59' E 132°35'310.1
2018-Jan-09 18:30N 34°02' E 132°38'93 9.5
2018-Jan-09 08:42N 34°27' E 134°26'310.9
2018-Jan-09 08:28N 34°27' E 134°29'510.6
2018-Jan-09 08:00N 34°29' E 134°35'5 9.9
2018-Jan-09 07:30N 34°31' E 134°40'5 9.5
2018-Jan-09 07:00N 34°33' E 134°46'4 8.3
2018-Jan-09 06:30N 34°34' E 134°50'3 5.3
2018-Jan-09 05:59N 34°36' E 134°53'3 6.7
2018-Jan-09 05:30N 34°37' E 134°57'4 7.8
2018-Jan-09 05:00N 34°37' E 135°02'510.5
2018-Jan-09 04:30N 34°35' E 135°08'5 9.8
2018-Jan-09 04:00N 34°35' E 135°14'5 9.1
2018-Jan-09 03:30N 34°34' E 135°19'4 9.0
2018-Jan-09 03:01N 34°33' E 135°25'1 2.2
2018-Jan-09 02:30N 34°32' E 135°25'0 0.0
2018-Jan-09 02:00N 34°32' E 135°25'0 0.0
2018-Jan-09 01:30N 34°32' E 135°25'0 0.0
2018-Jan-09 01:00N 34°32' E 135°25'  
Track history (hours):
 
Tides and Currents Weather Stations Pressure Air Temp Water Temp Dewpoint Dewpoint Depression Visibility Wind Speed Wind Dir Waves Ship Positions

Sanshun Maru

Last reported at 2018-Jan-19 01:00 UTC. Time now 2018-Jan-19 01:14 UTC.
Position N 35°32' E 139°46'.

Length 64 m; draft 4.4 m.

Type: Tanker. MMSI: 431101145.

Date/timePositionNaut miles runAvg speedWind from/ knotsBaromVisibWave heightAir tempDewpointWater temp
2018-Jan-19 01:00N 35°32' E 139°46'0 0.0
2018-Jan-19 00:30N 35°32' E 139°46'0 0.0
2018-Jan-19 00:01N 35°32' E 139°46'0 0.0
2018-Jan-18 23:30N 35°32' E 139°46'0 0.0
2018-Jan-18 23:00N 35°32' E 139°46'0 0.0
2018-Jan-18 22:30N 35°32' E 139°46'2 4.8
2018-Jan-18 22:01N 35°30' E 139°48'1 2.2
2018-Jan-18 21:22N 35°30' E 139°50'0 0.0
2018-Jan-18 21:00N 35°30' E 139°50'0 0.0
2018-Jan-18 20:25N 35°30' E 139°50'0 0.0
2018-Jan-18 19:58N 35°30' E 139°50'0 0.1
2018-Jan-18 19:30N 35°30' E 139°50'0 0.0
2018-Jan-18 19:00N 35°30' E 139°50'4 7.6
2018-Jan-18 18:30N 35°27' E 139°47'612.6
2018-Jan-18 18:00N 35°21' E 139°45'612.0
2018-Jan-18 17:30N 35°15' E 139°47'612.4
2018-Jan-18 17:00N 35°09' E 139°46'611.6
2018-Jan-18 16:30N 35°04' E 139°42'612.3
2018-Jan-18 16:00N 35°00' E 139°36'813.1
2018-Jan-18 15:24N 34°56' E 139°28'913.7
2018-Jan-18 14:47N 34°50' E 139°20'513.6
2018-Jan-18 14:23N 34°47' E 139°15'813.8
2018-Jan-18 13:50N 34°42' E 139°08'413.4
2018-Jan-18 13:30N 34°40' E 139°03'813.5
2018-Jan-18 12:57N 34°35' E 138°56'1112.6
2018-Jan-18 12:06N 34°34' E 138°43'412.2
2018-Jan-18 11:46N 34°34' E 138°38'412.6
2018-Jan-18 11:27N 34°34' E 138°33'612.8
2018-Jan-18 10:58N 34°34' E 138°26'712.8
2018-Jan-18 10:25N 34°33' E 138°17'912.4
2018-Jan-18 09:43N 34°33' E 138°07'513.3
2018-Jan-18 09:22N 34°32' E 138°01'613.3
2018-Jan-18 08:57N 34°32' E 137°54'3113.2
2018-Jan-18 06:37N 34°32' E 137°17'212.8
2018-Jan-18 06:28N 34°32' E 137°15'2011.5
2018-Jan-18 04:46N 34°39' E 136°52'412.4
2018-Jan-18 04:26N 34°42' E 136°49'512.8
2018-Jan-18 04:00N 34°47' E 136°46'612.7
2018-Jan-18 03:30N 34°53' E 136°46'612.6
2018-Jan-18 03:00N 34°59' E 136°49'610.2
2018-Jan-18 02:28N 35°03' E 136°53'0 0.0
2018-Jan-18 01:58N 35°03' E 136°53'0 0.0
2018-Jan-18 01:28N 35°03' E 136°53'0 0.0
2018-Jan-18 00:58N 35°03' E 136°53'0 0.0
2018-Jan-17 23:58N 35°03' E 136°53'0 0.0
2018-Jan-17 23:52N 35°03' E 136°53'  
2018-Jan-12 06:58N 34°02' E 131°48'2 4.0
2018-Jan-12 06:27N 34°00' E 131°46'511.7
2018-Jan-12 06:00N 33°55' E 131°45'612.4
2018-Jan-12 05:30N 33°49' E 131°46'612.3
2018-Jan-12 05:00N 33°43' E 131°46'612.7
2018-Jan-12 04:30N 33°37' E 131°47'612.5
2018-Jan-12 04:00N 33°30' E 131°46'712.2
2018-Jan-12 03:24N 33°23' E 131°44'512.5
2018-Jan-12 03:00N 33°19' E 131°41'3 4.3
2018-Jan-12 02:24N 33°16' E 131°41'0 0.0
2018-Jan-12 02:00N 33°16' E 131°41'0 0.0
2018-Jan-12 01:28N 33°16' E 131°41'0 0.0
2018-Jan-12 00:56N 33°16' E 131°41'0 0.0
2018-Jan-12 00:21N 33°16' E 131°41'0 0.0
2018-Jan-11 23:48N 33°16' E 131°41'0 0.0
2018-Jan-11 23:27N 33°16' E 131°41'2 3.6
2018-Jan-11 22:59N 33°18' E 131°41'3 7.0
2018-Jan-11 22:30N 33°21' E 131°41'0 0.0
2018-Jan-11 22:00N 33°21' E 131°41'0 0.0
2018-Jan-11 21:20N 33°21' E 131°41'0 0.0
2018-Jan-11 20:53N 33°21' E 131°41'2 4.6
2018-Jan-11 20:30N 33°23' E 131°42'711.0
2018-Jan-11 19:53N 33°27' E 131°49'410.3
2018-Jan-11 19:28N 33°30' E 131°53'3510.3
2018-Jan-11 16:06N 33°48' E 132°28'110.9
2018-Jan-11 16:00N 33°48' E 132°29'711.4
2018-Jan-11 15:22N 33°53' E 132°36'411.8
2018-Jan-11 15:00N 33°56' E 132°40'611.9
2018-Jan-11 14:30N 34°00' E 132°44'5 0.2
2018-Jan-10 13:14N 34°05' E 132°42'312.2
2018-Jan-10 13:00N 34°03' E 132°39'612.0
2018-Jan-10 12:30N 33°59' E 132°35'2811.3
2018-Jan-10 10:04N 33°46' E 132°05'112.6
2018-Jan-10 09:58N 33°46' E 132°03'812.8
2018-Jan-10 09:19N 33°45' E 131°53'413.2
2018-Jan-10 09:00N 33°46' E 131°49'713.0
2018-Jan-10 08:30N 33°48' E 131°41'613.0
2018-Jan-10 08:00N 33°49' E 131°33'613.0
2018-Jan-10 07:30N 33°51' E 131°26'713.3
2018-Jan-10 07:00N 33°52' E 131°18'611.7
2018-Jan-10 06:30N 33°56' E 131°13'2 3.2
2018-Jan-10 06:00N 33°57' E 131°14'0 0.0
2018-Jan-10 05:31N 33°57' E 131°14'0 0.0
2018-Jan-10 05:00N 33°57' E 131°14'0 0.0
2018-Jan-10 04:31N 33°57' E 131°14'0 0.0
2018-Jan-10 04:00N 33°57' E 131°14'0 0.0
2018-Jan-10 03:30N 33°57' E 131°14'0 0.0
2018-Jan-10 03:00N 33°57' E 131°14'0 0.0
2018-Jan-10 02:31N 33°57' E 131°14'0 0.0
2018-Jan-10 02:00N 33°57' E 131°14'3 6.0
2018-Jan-10 01:30N 33°54' E 131°13'510.3
2018-Jan-10 01:00N 33°52' E 131°18'511.0
2018-Jan-10 00:30N 33°51' E 131°25'611.0
2018-Jan-10 00:00N 33°50' E 131°31'611.1
2018-Jan-09 23:30N 33°49' E 131°38'511.0
2018-Jan-09 23:00N 33°47' E 131°44'610.8
2018-Jan-09 22:30N 33°46' E 131°51'811.1
2018-Jan-09 21:45N 33°46' E 132°01'311.2
2018-Jan-09 21:30N 33°46' E 132°04'611.9
2018-Jan-09 21:00N 33°49' E 132°10'911.5
2018-Jan-09 20:13N 33°50' E 132°21'611.1
2018-Jan-09 19:41N 33°54' E 132°27'211.2
2018-Jan-09 19:30N 33°55' E 132°29'710.2
2018-Jan-09 18:51N 33°59' E 132°35'310.1
2018-Jan-09 18:30N 34°02' E 132°38'93 9.5
2018-Jan-09 08:42N 34°27' E 134°26'310.9
2018-Jan-09 08:28N 34°27' E 134°29'510.6
2018-Jan-09 08:00N 34°29' E 134°35'5 9.9
2018-Jan-09 07:30N 34°31' E 134°40'5 9.5
2018-Jan-09 07:00N 34°33' E 134°46'4 8.3
2018-Jan-09 06:30N 34°34' E 134°50'3 5.3
2018-Jan-09 05:59N 34°36' E 134°53'3 6.7
2018-Jan-09 05:30N 34°37' E 134°57'4 7.8
2018-Jan-09 05:00N 34°37' E 135°02'510.5
2018-Jan-09 04:30N 34°35' E 135°08'5 9.8
2018-Jan-09 04:00N 34°35' E 135°14'5 9.1
2018-Jan-09 03:30N 34°34' E 135°19'4 9.0
2018-Jan-09 03:01N 34°33' E 135°25'1 2.2
2018-Jan-09 02:30N 34°32' E 135°25'0 0.0
2018-Jan-09 02:00N 34°32' E 135°25'0 0.0
2018-Jan-09 01:30N 34°32' E 135°25'0 0.0
2018-Jan-09 01:00N 34°32' E 135°25'  

Dump ship's entire track history